Time;durP1;ratioP1;P1;durP2;ratioP2;P2;SDS_P1;SDS_P2;PMS_P1;PMS_P2;Temp;Humidity;BMP_temperature;BMP_pressure;BME280_temperature;BME280_humidity;BME280_pressure;Samples;Min_cycle;Max_cycle;Signal;HPM_P1;HPM_P2
2024/01/22 00:02:00;;;;;;;0.70;0.67;;;;;;;0.40;70.88;96339.22;4333110;32;20200;-62
2024/01/22 00:04:26;;;;;;;1.00;1.00;;;;;;;0.55;70.04;96343.19;4320440;32;20415;-63
2024/01/22 00:06:52;;;;;;;1.02;1.02;;;;;;;0.71;69.92;96341.91;4328387;32;20205;-62
2024/01/22 00:09:18;;;;;;;2.43;2.00;;;;;;;0.63;69.14;96340.31;4321525;32;20188;-63
2024/01/22 00:11:43;;;;;;;1.07;0.97;;;;;;;0.52;70.18;96337.56;4317881;32;20189;-63
2024/01/22 00:14:09;;;;;;;0.87;0.50;;;;;;;0.66;70.10;96332.09;4318882;32;20317;-62
2024/01/22 00:16:38;;;;;;;1.00;1.00;;;;;;;0.63;70.16;96334.31;4320585;33;20201;-62
2024/01/22 00:19:03;;;;;;;1.03;1.03;;;;;;;0.58;70.18;96339.34;4335232;32;20182;-63
2024/01/22 00:21:29;;;;;;;1.37;1.27;;;;;;;0.74;69.83;96335.50;4334887;32;20277;-62
2024/01/22 00:23:56;;;;;;;1.77;1.67;;;;;;;0.51;70.48;96341.97;4338336;32;20292;-63
2024/01/22 00:26:22;;;;;;;0.90;0.90;;;;;;;0.59;70.83;96328.72;4338444;32;20185;-63
2024/01/22 00:28:47;;;;;;;0.77;0.77;;;;;;;0.61;70.05;96324.09;4338349;32;20181;-63
2024/01/22 00:31:12;;;;;;;1.07;1.07;;;;;;;0.59;70.89;96323.50;4334446;32;20236;-62
2024/01/22 00:33:38;;;;;;;2.03;1.93;;;;;;;0.75;70.39;96316.22;4338566;32;20182;-63
2024/01/22 00:36:03;;;;;;;0.70;0.70;;;;;;;0.76;70.58;96310.78;4337912;32;20231;-62
2024/01/22 00:38:29;;;;;;;0.40;0.40;;;;;;;0.80;70.25;96319.00;4333278;32;20201;-63
2024/01/22 00:40:54;;;;;;;1.37;1.27;;;;;;;0.69;70.70;96317.81;4319884;32;20252;-62
2024/01/22 00:43:20;;;;;;;3.40;1.17;;;;;;;0.72;71.53;96317.41;4321297;32;20212;-62
2024/01/22 00:45:45;;;;;;;1.80;0.73;;;;;;;0.75;70.62;96305.75;4332389;32;20193;-63
2024/01/22 00:48:10;;;;;;;1.37;1.30;;;;;;;0.56;71.11;96303.03;4322770;32;20197;-62
2024/01/22 00:50:36;;;;;;;1.30;1.20;;;;;;;0.64;71.67;96299.34;4336827;32;20193;-63
2024/01/22 00:53:01;;;;;;;0.43;0.43;;;;;;;0.54;71.12;96299.81;4324106;32;20205;-62
2024/01/22 00:55:26;;;;;;;1.03;1.03;;;;;;;0.52;71.01;96299.22;4332502;32;20200;-62
2024/01/22 00:57:52;;;;;;;1.73;1.00;;;;;;;0.49;70.72;96297.00;4319744;32;20189;-63
2024/01/22 01:00:17;;;;;;;1.10;1.10;;;;;;;0.58;70.01;96297.59;4332292;32;20190;-62
2024/01/22 01:02:43;;;;;;;0.53;0.53;;;;;;;0.68;69.86;96295.34;4332359;32;20207;-63
2024/01/22 01:05:08;;;;;;;0.70;0.70;;;;;;;0.75;69.55;96293.50;4325591;32;20193;-63
2024/01/22 01:07:35;;;;;;;0.77;0.77;;;;;;;0.54;68.96;96291.19;4337764;32;20276;-63
2024/01/22 01:10:00;;;;;;;0.73;0.73;;;;;;;0.83;67.78;96279.44;4319664;32;20289;-62
2024/01/22 01:12:26;;;;;;;1.10;1.10;;;;;;;0.61;68.84;96281.53;4332694;32;20260;-63
2024/01/22 01:14:51;;;;;;;0.50;0.50;;;;;;;0.84;68.56;96283.59;4319838;32;20192;-63
2024/01/22 01:17:16;;;;;;;1.63;1.13;;;;;;;0.82;67.77;96276.00;4332347;32;20189;-63
2024/01/22 01:19:42;;;;;;;0.47;0.47;;;;;;;0.71;68.54;96283.69;4337819;32;20248;-63
2024/01/22 01:22:07;;;;;;;0.40;0.40;;;;;;;0.64;68.90;96284.50;4335558;32;20185;-63
2024/01/22 01:24:32;;;;;;;0.80;0.73;;;;;;;0.47;69.78;96282.56;4323284;32;20196;-63
2024/01/22 01:26:58;;;;;;;0.87;0.87;;;;;;;0.25;70.42;96287.22;4337415;32;20223;-63
2024/01/22 01:29:23;;;;;;;1.20;1.10;;;;;;;0.31;70.65;96284.62;4317493;32;20177;-63
2024/01/22 01:31:48;;;;;;;0.80;0.80;;;;;;;0.51;69.46;96276.72;4318542;32;20221;-63
2024/01/22 01:34:14;;;;;;;2.70;1.50;;;;;;;0.46;69.22;96268.72;4320266;32;20211;-62
2024/01/22 01:36:39;;;;;;;2.97;1.27;;;;;;;0.48;68.90;96274.53;4331176;32;20185;-63
2024/01/22 01:39:05;;;;;;;1.17;1.17;;;;;;;0.43;69.02;96271.72;4318739;32;20208;-62
2024/01/22 01:41:30;;;;;;;0.60;0.60;;;;;;;0.44;69.42;96270.72;4315638;32;20208;-62
2024/01/22 01:43:56;;;;;;;0.53;0.53;;;;;;;0.39;68.78;96265.34;4309192;32;20265;-62
2024/01/22 01:46:21;;;;;;;3.23;1.20;;;;;;;0.39;68.74;96270.56;4328120;32;20241;-62
2024/01/22 01:48:47;;;;;;;0.93;0.87;;;;;;;0.37;69.29;96256.09;4314306;32;20261;-63
2024/01/22 01:51:12;;;;;;;1.20;0.80;;;;;;;0.03;70.06;96254.56;4320320;32;20241;-62
2024/01/22 01:53:38;;;;;;;0.47;0.47;;;;;;;0.32;69.66;96252.31;4328346;32;20173;-62
2024/01/22 01:56:04;;;;;;;0.70;0.70;;;;;;;-0.19;70.14;96244.37;4319218;33;20190;-63
2024/01/22 01:58:29;;;;;;;0.40;0.40;;;;;;;-0.27;70.61;96238.59;4328908;32;20182;-63
2024/01/22 02:00:57;;;;;;;0.47;0.47;;;;;;;-0.01;69.22;96247.19;4327995;32;20235;-62
2024/01/22 02:03:23;;;;;;;0.20;0.20;;;;;;;0.13;69.42;96249.75;4332643;32;20208;-62
2024/01/22 02:05:48;;;;;;;0.53;0.53;;;;;;;0.11;68.77;96244.75;4333149;32;20201;-62
2024/01/22 02:08:13;;;;;;;0.90;0.90;;;;;;;0.02;69.05;96252.97;4332829;32;20212;-62
2024/01/22 02:10:39;;;;;;;0.97;0.97;;;;;;;0.04;69.56;96241.34;4338089;32;20182;-63
2024/01/22 02:13:06;;;;;;;1.50;1.40;;;;;;;-0.12;69.44;96245.19;4337942;32;20204;-62
2024/01/22 02:15:33;;;;;;;0.77;0.77;;;;;;;0.14;68.98;96246.16;4329250;32;20308;-62
2024/01/22 02:18:02;;;;;;;0.37;0.37;;;;;;;0.05;68.97;96235.13;4343897;32;20182;-62
2024/01/22 02:20:28;;;;;;;0.57;0.57;;;;;;;-0.18;69.34;96238.16;4333437;32;20280;-62
2024/01/22 02:22:53;;;;;;;0.73;0.73;;;;;;;-0.23;69.80;96229.38;4334529;32;20189;-62
2024/01/22 02:25:19;;;;;;;1.53;0.77;;;;;;;0.03;68.68;96234.50;4340361;32;20173;-62
2024/01/22 02:27:44;;;;;;;0.60;0.60;;;;;;;-0.20;68.62;96221.94;4330667;32;20281;-62
2024/01/22 02:30:10;;;;;;;1.23;1.13;;;;;;;-0.17;68.96;96213.69;4339387;32;20199;-62
2024/01/22 02:32:36;;;;;;;1.27;1.17;;;;;;;-0.01;68.34;96208.06;4332546;32;20174;-62
2024/01/22 02:35:01;;;;;;;0.53;0.53;;;;;;;-0.10;67.69;96214.50;4343108;32;20205;-62
2024/01/22 02:37:27;;;;;;;0.57;0.57;;;;;;;-0.12;68.09;96218.31;4341471;32;20199;-62
2024/01/22 02:39:52;;;;;;;1.40;0.40;;;;;;;-0.44;68.99;96222.59;4349591;32;20259;-61
2024/01/22 02:42:17;;;;;;;0.40;0.40;;;;;;;-0.35;69.40;96221.34;4330239;33;20173;-62
2024/01/22 02:44:43;;;;;;;0.50;0.50;;;;;;;-0.46;69.14;96209.75;4338041;32;20177;-62
2024/01/22 02:47:09;;;;;;;0.50;0.50;;;;;;;-0.79;70.35;96204.53;4344238;32;20185;-62
2024/01/22 02:49:34;;;;;;;0.77;0.77;;;;;;;-0.61;69.60;96196.13;4345258;32;20280;-62
2024/01/22 02:52:00;;;;;;;0.47;0.47;;;;;;;-0.52;69.64;96194.12;4342401;32;20177;-62
2024/01/22 02:54:28;;;;;;;0.67;0.67;;;;;;;-0.53;69.20;96185.50;4344502;32;20204;-62
2024/01/22 02:56:53;;;;;;;0.37;0.37;;;;;;;-0.53;69.32;96171.66;4343380;32;20195;-62
2024/01/22 02:59:19;;;;;;;0.53;0.53;;;;;;;-0.45;68.47;96174.87;4328478;32;20240;-62
2024/01/22 03:01:44;;;;;;;0.77;0.77;;;;;;;-0.40;68.04;96167.22;4329991;32;20205;-62
2024/01/22 03:04:09;;;;;;;0.23;0.23;;;;;;;-0.18;67.56;96164.38;4342998;32;20233;-62
2024/01/22 03:06:37;;;;;;;0.10;0.10;;;;;;;-0.51;67.74;96161.84;4344812;32;20193;-62
2024/01/22 03:09:03;;;;;;;0.47;0.47;;;;;;;-0.25;67.58;96161.81;4333243;32;20189;-62
2024/01/22 03:11:28;;;;;;;1.13;1.13;;;;;;;-0.05;66.37;96146.91;4330650;32;20232;-62
2024/01/22 03:13:53;;;;;;;0.30;0.30;;;;;;;-0.14;66.31;96155.94;4330972;32;20222;-61
2024/01/22 03:16:18;;;;;;;0.70;0.70;;;;;;;-0.12;65.99;96158.34;4347298;32;20217;-62
2024/01/22 03:18:44;;;;;;;0.20;0.20;;;;;;;-0.11;65.67;96158.16;4346459;32;20215;-62
2024/01/22 03:21:09;;;;;;;0.33;0.33;;;;;;;-0.38;66.00;96148.78;4333005;32;20186;-62
2024/01/22 03:23:34;;;;;;;0.67;0.40;;;;;;;-0.49;67.44;96152.03;4335221;32;20196;-62
2024/01/22 03:26:00;;;;;;;2.23;0.70;;;;;;;-0.38;66.56;96154.00;4346555;32;20203;-63
2024/01/22 03:28:26;;;;;;;0.50;0.50;;;;;;;-0.25;66.35;96140.94;4341699;32;20211;-62
2024/01/22 03:30:51;;;;;;;0.10;0.10;;;;;;;-0.02;65.84;96138.66;4346563;32;20177;-62
2024/01/22 03:33:17;;;;;;;0.20;0.20;;;;;;;0.03;65.59;96139.84;4342620;32;20283;-62
2024/01/22 03:35:42;;;;;;;0.03;0.03;;;;;;;-0.06;65.68;96142.69;4333127;32;20219;-62
2024/01/22 03:38:08;;;;;;;0.20;0.20;;;;;;;-0.22;66.11;96147.56;4338843;32;20190;-62
2024/01/22 03:40:33;;;;;;;0.47;0.47;;;;;;;-0.02;65.69;96136.06;4344993;32;20205;-62
2024/01/22 03:42:58;;;;;;;0.33;0.33;;;;;;;-0.11;65.36;96139.91;4332826;32;20204;-62
2024/01/22 03:45:24;;;;;;;0.87;0.67;;;;;;;-0.07;66.38;96135.06;4330046;33;20178;-62
2024/01/22 03:47:49;;;;;;;1.10;0.23;;;;;;;0.12;65.19;96149.84;4344793;32;20205;-62
2024/01/22 03:50:14;;;;;;;0.20;0.20;;;;;;;0.19;65.12;96149.81;4339625;32;20185;-61
2024/01/22 03:52:40;;;;;;;0.40;0.40;;;;;;;-0.07;65.13;96143.69;4332767;32;20295;-62
2024/01/22 03:55:05;;;;;;;0.53;0.53;;;;;;;0.07;64.37;96134.00;4346671;32;20177;-62
2024/01/22 03:57:31;;;;;;;0.10;0.10;;;;;;;0.04;64.39;96131.81;4333256;32;20261;-62
2024/01/22 03:59:56;;;;;;;0.50;0.47;;;;;;;0.26;63.96;96129.69;4331650;32;20280;-62
2024/01/22 04:02:21;;;;;;;0.20;0.20;;;;;;;0.06;64.56;96127.19;4324168;32;20224;-62
2024/01/22 04:04:47;;;;;;;0.47;0.47;;;;;;;-0.12;65.00;96122.66;4331889;32;20272;-62
2024/01/22 04:07:12;;;;;;;0.10;0.10;;;;;;;-0.14;65.03;96116.84;4336997;32;20181;-62
2024/01/22 04:09:38;;;;;;;0.07;0.07;;;;;;;0.00;65.40;96126.19;4342501;32;20212;-62
2024/01/22 04:12:03;;;;;;;0.20;0.20;;;;;;;0.17;64.63;96123.13;4332113;33;20185;-62
2024/01/22 04:14:29;;;;;;;0.30;0.30;;;;;;;0.10;64.80;96111.94;4325814;32;20190;-62
2024/01/22 04:16:54;;;;;;;0.30;0.30;;;;;;;0.03;64.53;96108.53;4333952;32;20272;-62
2024/01/22 04:19:20;;;;;;;0.30;0.30;;;;;;;0.19;64.03;96098.44;4330299;32;20229;-62
2024/01/22 04:21:46;;;;;;;0.30;0.30;;;;;;;0.20;64.04;96100.06;4329425;32;20215;-62
2024/01/22 04:24:12;;;;;;;0.35;0.35;;;;;;;0.26;64.35;96091.37;4331869;32;20236;-61
2024/01/22 04:26:37;;;;;;;0.00;0.00;;;;;;;0.43;63.42;96073.41;4339220;32;20194;-62
2024/01/22 04:29:04;;;;;;;1.50;0.23;;;;;;;0.50;62.97;96068.16;4344899;32;20204;-62
2024/01/22 04:31:30;;;;;;;0.62;0.62;;;;;;;-0.03;64.74;96076.28;4333709;32;20262;-62
2024/01/22 04:33:55;;;;;;;0.17;0.17;;;;;;;-0.25;65.71;96067.97;4333315;32;20193;-61
2024/01/22 04:36:21;;;;;;;0.33;0.33;;;;;;;-0.38;65.83;96062.78;4331016;32;20272;-62
2024/01/22 04:38:46;;;;;;;0.10;0.10;;;;;;;-0.48;65.95;96062.44;4334203;32;20181;-62
2024/01/22 04:41:11;;;;;;;0.20;0.20;;;;;;;0.01;65.17;96054.00;4333023;32;20271;-62
2024/01/22 04:43:37;;;;;;;0.10;0.10;;;;;;;-0.17;65.06;96057.28;4329126;32;20186;-62
2024/01/22 04:46:02;;;;;;;0.20;0.20;;;;;;;-0.01;64.93;96053.41;4337157;32;20261;-62
2024/01/22 04:48:28;;;;;;;0.00;0.00;;;;;;;0.26;64.51;96054.84;4330385;32;20228;-62
2024/01/22 04:50:53;;;;;;;0.20;0.20;;;;;;;0.25;64.23;96044.63;4330960;32;20201;-62
2024/01/22 04:53:19;;;;;;;0.20;0.20;;;;;;;0.45;63.64;96034.84;4330915;32;20185;-62
2024/01/22 04:55:44;;;;;;;0.00;0.00;;;;;;;0.46;62.35;96031.22;4332510;32;20177;-62
2024/01/22 04:58:10;;;;;;;0.40;0.40;;;;;;;0.45;62.85;96029.63;4332077;32;20220;-62
2024/01/22 05:00:35;;;;;;;0.17;0.17;;;;;;;0.55;62.13;96023.94;4330199;33;20182;-62
2024/01/22 05:03:04;;;;;;;0.60;0.57;;;;;;;0.57;61.62;96012.28;4344274;32;20185;-62
2024/01/22 05:05:31;;;;;;;0.27;0.27;;;;;;;0.48;61.82;95997.91;4343784;32;20200;-62
2024/01/22 05:07:56;;;;;;;0.00;0.00;;;;;;;0.34;62.05;95991.19;4339539;32;23016;-62
2024/01/22 05:10:21;;;;;;;0.00;0.00;;;;;;;0.58;61.49;95995.62;4336777;32;20193;-62
2024/01/22 05:12:47;;;;;;;0.27;0.27;;;;;;;0.67;61.22;95988.28;4331583;32;20215;-62
2024/01/22 05:15:12;;;;;;;0.00;0.00;;;;;;;0.79;61.64;95978.75;4339031;32;20192;-62
2024/01/22 05:17:38;;;;;;;0.30;0.30;;;;;;;1.02;60.71;95980.75;4346140;32;20212;-62
2024/01/22 05:20:06;;;;;;;0.57;0.57;;;;;;;1.19;59.48;95981.75;4337672;32;20231;-62
2024/01/22 05:22:32;;;;;;;0.10;0.10;;;;;;;1.37;58.82;95986.97;4317857;32;20190;-62
2024/01/22 05:24:57;;;;;;;0.03;0.03;;;;;;;1.49;58.65;95967.94;4342728;32;20188;-62
2024/01/22 05:27:24;;;;;;;0.03;0.03;;;;;;;1.49;59.94;95970.56;4321142;32;20181;-62
2024/01/22 05:29:49;;;;;;;0.25;0.25;;;;;;;1.63;58.46;95974.63;4337639;32;20277;-62
2024/01/22 05:32:15;;;;;;;0.10;0.10;;;;;;;1.68;58.01;95972.12;4336882;32;20207;-62
2024/01/22 05:34:40;;;;;;;3.10;0.20;;;;;;;1.69;57.91;95976.31;4327978;32;20283;-62
2024/01/22 05:37:05;;;;;;;0.17;0.17;;;;;;;1.62;58.79;95978.25;4346266;32;20186;-62
2024/01/22 05:39:31;;;;;;;0.33;0.33;;;;;;;1.70;58.66;95975.31;4338176;32;20174;-62
2024/01/22 05:41:56;;;;;;;0.20;0.20;;;;;;;1.76;57.96;95960.56;4331185;32;20270;-62
2024/01/22 05:44:21;;;;;;;2.20;0.13;;;;;;;1.79;57.07;95958.31;4346495;32;20308;-62
2024/01/22 05:46:47;;;;;;;0.17;0.17;;;;;;;1.92;56.18;95958.09;4341728;32;20194;-62
2024/01/22 05:49:12;;;;;;;0.00;0.00;;;;;;;2.06;54.84;95956.13;4341769;32;20207;-62
2024/01/22 05:51:38;;;;;;;0.10;0.10;;;;;;;2.14;54.64;95961.00;4328762;32;20209;-62
2024/01/22 05:54:03;;;;;;;0.10;0.10;;;;;;;2.13;55.59;95963.84;4344160;32;20203;-62
2024/01/22 05:56:28;;;;;;;0.20;0.13;;;;;;;2.11;57.61;95964.06;4334491;32;20199;-62
2024/01/22 05:58:55;;;;;;;0.13;0.13;;;;;;;2.10;58.21;95961.69;4324450;32;20223;-62
2024/01/22 06:01:24;;;;;;;0.30;0.30;;;;;;;2.08;56.09;95966.38;4336149;32;20209;-62
2024/01/22 06:03:50;;;;;;;0.20;0.20;;;;;;;2.11;57.19;95955.44;4337658;32;20322;-62
2024/01/22 06:06:15;;;;;;;0.33;0.33;;;;;;;2.16;56.23;95966.81;4343896;32;20273;-62
2024/01/22 06:08:45;;;;;;;0.00;0.00;;;;;;;2.03;57.94;95969.66;4326604;33;20194;-62
2024/01/22 06:11:11;;;;;;;0.10;0.10;;;;;;;2.07;56.64;95962.94;4344611;32;20181;-62
2024/01/22 06:13:39;;;;;;;0.10;0.10;;;;;;;1.98;58.42;95954.63;4330288;32;20289;-62
2024/01/22 06:16:06;;;;;;;0.00;0.00;;;;;;;1.97;58.86;95945.16;4331627;32;20274;-62
2024/01/22 06:18:32;;;;;;;0.10;0.10;;;;;;;1.97;59.17;95950.41;4340199;32;20300;-62
2024/01/22 06:20:57;;;;;;;0.00;0.00;;;;;;;2.11;57.80;95948.38;4337881;32;20266;-61
2024/01/22 06:23:22;;;;;;;0.17;0.17;;;;;;;2.03;59.30;95954.75;4320839;32;20268;-61
2024/01/22 06:25:48;;;;;;;0.40;0.33;;;;;;;2.13;58.11;95953.37;4337772;32;20193;-61
2024/01/22 06:28:13;;;;;;;0.20;0.20;;;;;;;1.99;57.27;95956.22;4341504;32;20244;-62
2024/01/22 06:30:38;;;;;;;0.70;0.47;;;;;;;1.95;59.08;95951.63;4341374;32;20192;-62
2024/01/22 06:33:04;;;;;;;1.17;0.53;;;;;;;1.95;60.19;95956.88;4346247;32;20201;-61
2024/01/22 06:35:29;;;;;;;1.43;0.90;;;;;;;1.89;60.02;95955.94;4342867;32;20238;-61
2024/01/22 06:37:55;;;;;;;0.30;0.30;;;;;;;1.85;60.40;95962.66;4325773;33;20219;-62
2024/01/22 06:40:20;;;;;;;0.77;0.77;;;;;;;1.84;60.00;95965.50;4329926;33;20239;-61
2024/01/22 06:42:45;;;;;;;5.93;0.70;;;;;;;2.02;61.04;95955.75;4341321;32;20185;-62
2024/01/22 06:45:10;;;;;;;0.60;0.60;;;;;;;1.92;61.33;95946.84;4344371;32;20212;-62
2024/01/22 06:47:36;;;;;;;0.50;0.40;;;;;;;1.88;61.41;95930.78;4336173;32;20251;-62
2024/01/22 06:50:01;;;;;;;1.83;0.33;;;;;;;1.90;59.80;95927.97;4335179;32;20197;-61
2024/01/22 06:52:27;;;;;;;0.23;0.23;;;;;;;2.01;59.47;95930.63;4333244;33;20264;-62
2024/01/22 06:54:53;;;;;;;3.20;0.67;;;;;;;1.81;59.46;95930.13;4335636;32;20284;-61
2024/01/22 06:57:18;;;;;;;6.37;0.73;;;;;;;1.82;61.24;95918.63;4348158;32;20190;-61
2024/01/22 06:59:43;;;;;;;0.73;0.73;;;;;;;1.98;59.84;95925.84;4343922;32;20235;-62
2024/01/22 07:02:09;;;;;;;0.30;0.30;;;;;;;1.96;61.88;95908.75;4340978;32;20182;-62
2024/01/22 07:04:36;;;;;;;0.53;0.50;;;;;;;1.96;61.09;95920.03;4336079;32;20185;-61
2024/01/22 07:07:03;;;;;;;0.30;0.30;;;;;;;2.01;61.13;95914.94;4334319;32;20202;-62
2024/01/22 07:09:28;;;;;;;4.77;0.60;;;;;;;2.00;60.83;95923.78;4334592;32;20324;-62
2024/01/22 07:11:54;;;;;;;0.63;0.40;;;;;;;1.98;61.33;95914.56;4333776;32;20274;-63
2024/01/22 07:14:19;;;;;;;0.43;0.43;;;;;;;2.01;59.83;95920.16;4332907;32;20190;-62
2024/01/22 07:16:44;;;;;;;0.77;0.77;;;;;;;1.79;60.71;95916.47;4335858;32;20232;-63
2024/01/22 07:19:09;;;;;;;1.70;1.20;;;;;;;1.58;60.84;95935.25;4333277;32;20222;-62
2024/01/22 07:21:35;;;;;;;0.33;0.33;;;;;;;1.94;59.66;95924.69;4346026;32;20228;-62
2024/01/22 07:24:01;;;;;;;1.60;0.60;;;;;;;2.01;59.09;95919.34;4340267;32;20193;-62
2024/01/22 07:26:26;;;;;;;0.20;0.20;;;;;;;1.96;61.05;95917.41;4335244;32;20256;-62
2024/01/22 07:28:51;;;;;;;8.00;1.33;;;;;;;2.07;60.35;95908.00;4332218;32;20193;-62
2024/01/22 07:31:17;;;;;;;0.53;0.53;;;;;;;2.13;59.58;95909.69;4332963;32;20223;-62
2024/01/22 07:33:42;;;;;;;0.80;0.80;;;;;;;2.28;58.85;95917.13;4336072;32;20193;-62
2024/01/22 07:36:08;;;;;;;0.70;0.70;;;;;;;2.24;59.72;95916.78;4349919;32;20276;-62
2024/01/22 07:38:33;;;;;;;8.93;1.07;;;;;;;2.33;59.30;95925.88;4331952;33;20196;-62
2024/01/22 07:40:58;;;;;;;1.80;0.93;;;;;;;2.25;59.62;95926.22;4331671;32;20197;-62
2024/01/22 07:43:24;;;;;;;0.80;0.80;;;;;;;2.24;58.96;95929.06;4332581;32;20186;-63
2024/01/22 07:45:49;;;;;;;3.50;1.07;;;;;;;7.95;100.00;95899.03;4345938;32;20189;-63
2024/01/22 07:48:14;;;;;;;0.90;0.70;;;;;;;8.64;100.00;95914.44;4338291;32;20312;-63
2024/01/22 07:50:41;;;;;;;0.97;0.77;;;;;;;10.22;80.27;95915.44;4334072;32;20236;-63
2024/01/22 07:53:07;;;;;;;0.80;0.80;;;;;;;10.42;56.94;95908.41;4333728;33;20193;-64
2024/01/22 07:55:33;;;;;;;0.93;0.57;;;;;;;10.76;52.72;95908.41;4332198;32;20304;-64
2024/01/22 07:57:58;;;;;;;1.07;1.07;;;;;;;10.84;52.37;95913.88;4332337;32;20299;-64
2024/01/22 08:00:24;;;;;;;0.77;0.77;;;;;;;11.01;49.93;95906.25;4330047;32;20198;-64
2024/01/22 08:02:49;;;;;;;6.07;1.37;;;;;;;11.07;47.93;95908.87;4334067;32;20173;-63
2024/01/22 08:05:14;;;;;;;2.33;0.70;;;;;;;11.11;49.87;95901.94;4331448;32;20211;-63
2024/01/22 08:07:42;;;;;;;1.00;0.50;;;;;;;11.40;62.99;95905.34;4330607;32;20243;-63
2024/01/22 08:10:08;;;;;;;0.73;0.60;;;;;;;11.68;63.04;95909.75;4331737;32;20186;-64
2024/01/22 08:12:33;;;;;;;0.87;0.77;;;;;;;11.57;52.51;95896.91;4332539;33;20193;-64
2024/01/22 08:14:58;;;;;;;1.00;0.60;;;;;;;11.44;51.90;95906.34;4344687;32;20293;-64
2024/01/22 08:17:24;;;;;;;0.47;0.47;;;;;;;11.20;48.32;95913.53;4333978;32;20190;-64
2024/01/22 08:19:49;;;;;;;1.43;0.77;;;;;;;10.92;47.33;95917.78;4334338;32;20187;-64
2024/01/22 08:30:44;;;;;;;3.13;1.60;;;;;;;7.36;44.32;95944.28;4349079;32;20231;-62
2024/01/22 08:33:10;;;;;;;17.47;1.17;;;;;;;6.24;45.71;95986.72;4316340;32;20302;-64
2024/01/22 08:35:35;;;;;;;1.20;0.90;;;;;;;5.87;47.76;96000.53;4353791;32;20193;-63
2024/01/22 08:38:01;;;;;;;0.57;0.57;;;;;;;5.01;50.25;95992.31;4305811;32;20189;-63
2024/01/22 08:40:27;;;;;;;1.93;1.40;;;;;;;4.88;51.14;95986.63;4324143;32;20802;-64
2024/01/22 08:42:55;;;;;;;4.07;2.47;;;;;;;4.72;51.45;95989.03;4343263;32;20193;-62
2024/01/22 08:45:22;;;;;;;1.50;1.13;;;;;;;4.66;51.85;95979.47;4331194;32;20419;-64
2024/01/22 08:47:51;;;;;;;1.23;1.17;;;;;;;4.95;52.40;95977.53;4341443;32;20323;-64
2024/01/22 08:50:19;;;;;;;1.37;1.27;;;;;;;4.90;52.99;95966.94;4343957;32;20304;-64
2024/01/22 08:52:48;;;;;;;1.50;1.20;;;;;;;4.66;53.18;95963.69;4344685;32;20305;-64
2024/01/22 08:55:15;;;;;;;3.20;0.67;;;;;;;5.08;51.98;95950.09;4331834;32;20302;-64
2024/01/22 08:57:41;;;;;;;4.10;0.90;;;;;;;5.04;51.74;95956.88;4318859;32;20365;-63
2024/01/22 09:00:10;;;;;;;0.83;0.83;;;;;;;4.99;51.80;95951.56;4330980;32;20336;-64
2024/01/22 09:02:39;;;;;;;0.60;0.60;;;;;;;5.04;52.37;95944.53;4349381;32;20274;-64
2024/01/22 09:05:14;;;;;;;0.87;0.87;;;;;;;5.24;50.02;95944.00;4346479;32;20301;-64
2024/01/22 09:07:40;;;;;;;0.67;0.67;;;;;;;5.30;51.32;95935.12;4326939;32;20380;-63
2024/01/22 09:10:07;;;;;;;0.47;0.47;;;;;;;5.59;48.82;95930.50;4354848;32;20285;-64
2024/01/22 09:12:33;;;;;;;3.30;0.93;;;;;;;5.68;47.66;95936.88;4333757;32;20331;-64
2024/01/22 09:15:00;;;;;;;0.60;0.60;;;;;;;5.61;49.30;95941.53;4332288;32;20305;-64
2024/01/22 09:17:25;;;;;;;0.70;0.70;;;;;;;5.60;47.56;95931.28;4342563;32;20286;-63
2024/01/22 09:19:51;;;;;;;0.50;0.50;;;;;;;5.99;47.33;95934.62;4351360;32;20340;-63
2024/01/22 09:22:16;;;;;;;2.33;1.23;;;;;;;5.91;46.55;95927.94;4336993;32;20216;-63
2024/01/22 09:24:42;;;;;;;0.80;0.80;;;;;;;6.14;45.83;95927.62;4343227;32;20240;-64
2024/01/22 09:27:07;;;;;;;4.67;1.93;;;;;;;6.19;45.78;95927.69;4334465;32;20215;-64
2024/01/22 09:29:33;;;;;;;4.03;1.47;;;;;;;6.34;46.29;95928.84;4347561;32;20197;-64
2024/01/22 09:31:58;;;;;;;0.93;0.57;;;;;;;6.06;46.90;95925.44;4339052;32;20225;-64
2024/01/22 09:34:23;;;;;;;1.50;0.70;;;;;;;6.05;46.42;95926.50;4357513;32;20200;-64
2024/01/22 09:36:49;;;;;;;0.67;0.63;;;;;;;6.11;46.46;95917.59;4359711;32;20207;-64
2024/01/22 09:39:14;;;;;;;0.50;0.50;;;;;;;6.14;46.09;95921.56;4356588;32;20220;-63
2024/01/22 09:41:40;;;;;;;1.17;1.17;;;;;;;6.30;45.58;95920.66;4349111;32;20272;-64
2024/01/22 09:44:06;;;;;;;0.90;0.90;;;;;;;6.34;45.95;95915.69;4346355;32;20201;-64
2024/01/22 09:46:33;;;;;;;0.70;0.70;;;;;;;6.30;45.55;95910.13;4359050;32;20246;-63
2024/01/22 09:48:59;;;;;;;0.83;0.83;;;;;;;6.47;45.35;95897.59;4345233;32;20290;-63
2024/01/22 09:51:26;;;;;;;4.13;0.57;;;;;;;6.57;45.05;95888.97;4353748;32;20297;-64
2024/01/22 09:53:52;;;;;;;1.03;0.30;;;;;;;6.42;45.88;95897.59;4358253;32;20192;-64
2024/01/22 09:56:20;;;;;;;0.10;0.10;;;;;;;6.33;45.88;95882.47;4349088;32;20351;-63
2024/01/22 09:58:46;;;;;;;0.50;0.50;;;;;;;6.38;45.50;95878.03;4360966;32;20324;-64
2024/01/22 10:01:12;;;;;;;0.40;0.40;;;;;;;6.47;45.67;95881.78;4345249;32;20296;-64
2024/01/22 10:03:39;;;;;;;0.20;0.20;;;;;;;6.70;45.50;95877.19;4358946;32;20376;-64
2024/01/22 10:06:05;;;;;;;0.40;0.40;;;;;;;6.60;46.38;95872.66;4355533;32;20205;-64
2024/01/22 10:08:30;;;;;;;0.10;0.10;;;;;;;6.70;46.37;95866.66;4356195;32;20340;-64
2024/01/22 10:10:56;;;;;;;0.30;0.30;;;;;;;6.76;47.10;95858.53;4348552;32;20343;-62
2024/01/22 10:13:21;;;;;;;0.43;0.33;;;;;;;6.81;47.11;95855.91;4364118;32;20244;-62
2024/01/22 10:15:47;;;;;;;0.33;0.33;;;;;;;6.92;47.32;95848.03;4361833;32;20193;-62
2024/01/22 10:18:15;;;;;;;0.30;0.30;;;;;;;6.96;47.59;95833.28;4360207;32;20243;-62
2024/01/22 10:20:43;;;;;;;0.20;0.20;;;;;;;7.11;47.87;95825.44;4361090;32;20365;-62
2024/01/22 10:23:12;;;;;;;0.10;0.10;;;;;;;7.14;48.15;95817.81;4349524;32;20302;-62
2024/01/22 10:25:38;;;;;;;0.30;0.30;;;;;;;7.21;48.42;95810.44;4359559;32;20293;-62
2024/01/22 10:28:10;;;;;;;0.87;0.43;;;;;;;7.23;48.77;95807.56;4357006;32;20374;-62
2024/01/22 10:30:37;;;;;;;0.37;0.37;;;;;;;7.21;48.99;95791.19;4357745;32;20219;-61
2024/01/22 10:33:16;;;;;;;0.20;0.20;;;;;;;7.30;48.78;95797.53;4344067;32;20300;-62
2024/01/22 10:35:43;;;;;;;0.20;0.20;;;;;;;7.26;49.04;95785.13;4355931;32;20327;-61
2024/01/22 10:38:19;;;;;;;0.33;0.33;;;;;;;7.39;48.60;95782.78;4341448;32;20293;-63
2024/01/22 10:40:46;;;;;;;0.53;0.50;;;;;;;7.51;48.29;95779.88;4359400;32;20280;-64
2024/01/22 10:43:26;;;;;;;0.10;0.10;;;;;;;7.49;48.36;95780.13;4346880;32;20284;-63
2024/01/22 10:45:54;;;;;;;0.63;0.43;;;;;;;7.46;48.95;95774.62;4361233;32;20284;-63
2024/01/22 10:48:23;;;;;;;1.90;0.50;;;;;;;7.46;48.54;95769.34;4356397;32;20303;-63
2024/01/22 10:50:49;;;;;;;0.20;0.20;;;;;;;7.42;49.06;95774.34;4360444;32;20312;-63
2024/01/22 10:53:15;;;;;;;1.00;0.73;;;;;;;7.53;48.91;95775.94;4349686;32;20301;-63
2024/01/22 10:55:51;;;;;;;0.37;0.37;;;;;;;7.55;49.23;95778.31;4344757;32;20358;-64
2024/01/22 10:58:24;;;;;;;1.50;0.37;;;;;;;7.48;49.08;95770.63;4360003;32;20211;-63
2024/01/22 11:00:51;;;;;;;0.30;0.30;;;;;;;7.46;49.29;95756.13;4343571;32;20363;-63
2024/01/22 11:03:18;;;;;;;18.47;0.83;;;;;;;7.47;49.32;95740.03;4361459;32;20320;-64
2024/01/22 11:05:46;;;;;;;0.60;0.60;;;;;;;7.27;50.50;95726.81;4343526;32;20305;-63
2024/01/22 11:08:15;;;;;;;2.30;0.57;;;;;;;7.32;50.39;95747.91;4328585;32;20285;-63
2024/01/22 11:10:43;;;;;;;0.67;0.63;;;;;;;7.29;51.77;95752.94;4346261;32;20335;-63
2024/01/22 11:13:09;;;;;;;0.20;0.20;;;;;;;7.16;51.96;95760.28;4357941;32;20347;-63
2024/01/22 11:15:34;;;;;;;0.50;0.50;;;;;;;7.28;51.89;95752.12;4357498;32;20297;-64
2024/01/22 11:18:00;;;;;;;1.07;0.67;;;;;;;7.35;51.78;95744.75;4349111;32;20309;-64
2024/01/22 11:20:26;;;;;;;0.13;0.10;;;;;;;7.40;51.79;95742.13;4356079;32;20289;-64
2024/01/22 11:23:02;;;;;;;15.93;0.70;;;;;;;7.41;51.90;95727.88;4361423;32;20200;-64
2024/01/22 11:25:31;;;;;;;0.20;0.20;;;;;;;7.63;51.55;95732.13;4347638;32;20248;-64
2024/01/22 11:28:12;;;;;;;2.20;0.70;;;;;;;7.68;52.10;95729.50;4365244;32;20343;-64
2024/01/22 11:30:44;;;;;;;1.27;0.60;;;;;;;7.78;51.84;95718.91;4364076;32;20284;-64
2024/01/22 11:33:24;;;;;;;1.83;1.07;;;;;;;7.80;52.15;95714.16;4336522;32;20588;-63
2024/01/22 11:35:51;;;;;;;0.50;0.50;;;;;;;7.88;51.97;95697.78;4339716;32;20330;-64
2024/01/22 11:38:42;;;;;;;0.50;0.30;;;;;;;7.93;51.86;95710.97;4348546;32;20293;-64
2024/01/22 11:41:07;;;;;;;0.23;0.23;;;;;;;7.97;51.86;95701.44;4345122;32;20343;-64
2024/01/22 11:43:32;;;;;;;0.20;0.20;;;;;;;8.03;51.63;95689.81;4353216;32;20297;-64